Time;durP1;ratioP1;P1;durP2;ratioP2;P2;SDS_P1;SDS_P2;PMS_P1;PMS_P2;Temp;Humidity;BMP_temperature;BMP_pressure;BME280_temperature;BME280_humidity;BME280_pressure;Samples;Min_cycle;Max_cycle;Signal;HPM_P1;HPM_P2
2022/01/05 00:02:17;;;;;;;20.17;3.33;;;;;;;;;;5006514;28;20034;-67
2022/01/05 00:04:43;;;;;;;17.15;2.65;;;;;;;;;;5005478;28;20029;-66
2022/01/05 00:07:11;;;;;;;13.20;2.28;;;;;;;;;;5004836;28;20042;-66
2022/01/05 00:09:37;;;;;;;12.68;2.60;;;;;;;;;;5008350;28;20037;-65
2022/01/05 00:12:03;;;;;;;13.35;2.42;;;;;;;;;;5006896;28;20025;-66
2022/01/05 00:14:29;;;;;;;15.93;2.80;;;;;;;;;;5004157;28;20123;-66
2022/01/05 00:16:55;;;;;;;14.75;2.95;;;;;;;;;;5004772;28;20056;-66
2022/01/05 00:19:21;;;;;;;24.33;3.88;;;;;;;;;;5005164;28;20054;-66
2022/01/05 00:21:48;;;;;;;17.77;2.90;;;;;;;;;;5002814;28;20514;-66
2022/01/05 00:24:14;;;;;;;21.90;3.00;;;;;;;;;;5006863;28;20042;-66
2022/01/05 00:26:40;;;;;;;21.38;3.35;;;;;;;;;;5001415;28;20108;-66
2022/01/05 00:29:06;;;;;;;11.05;2.97;;;;;;;;;;5002155;28;20549;-65
2022/01/05 00:31:32;;;;;;;17.98;2.83;;;;;;;;;;5005875;28;20034;-66
2022/01/05 00:33:58;;;;;;;25.63;3.58;;;;;;;;;;5004789;28;20030;-65
2022/01/05 00:36:24;;;;;;;21.48;5.30;;;;;;;;;;5003092;28;20072;-65
2022/01/05 00:38:50;;;;;;;23.00;4.40;;;;;;;;;;4985163;28;20038;-66
2022/01/05 00:41:16;;;;;;;20.13;4.63;;;;;;;;;;4987600;28;20088;-66
2022/01/05 00:43:42;;;;;;;21.75;3.35;;;;;;;;;;5006515;28;20447;-65
2022/01/05 00:46:09;;;;;;;19.80;3.78;;;;;;;;;;4983802;28;20042;-66
2022/01/05 00:48:35;;;;;;;20.38;3.13;;;;;;;;;;5008319;28;20255;-66
2022/01/05 00:51:05;;;;;;;16.38;3.03;;;;;;;;;;5010347;28;20103;-67
2022/01/05 00:53:31;;;;;;;17.52;3.63;;;;;;;;;;5008378;28;20033;-67
2022/01/05 00:55:57;;;;;;;17.27;3.55;;;;;;;;;;5006765;28;20266;-67
2022/01/05 00:58:23;;;;;;;20.67;3.20;;;;;;;;;;4991374;28;20436;-66
2022/01/05 01:00:49;;;;;;;17.08;2.65;;;;;;;;;;5010069;28;20069;-67
2022/01/05 01:03:15;;;;;;;17.30;5.28;;;;;;;;;;5009265;28;20207;-66
2022/01/05 01:05:41;;;;;;;18.30;3.65;;;;;;;;;;5009664;28;20029;-67
2022/01/05 01:08:07;;;;;;;23.95;3.38;;;;;;;;;;5005131;28;20064;-66
2022/01/05 01:10:33;;;;;;;11.75;2.65;;;;;;;;;;5008549;28;20022;-66
2022/01/05 01:12:59;;;;;;;14.52;2.85;;;;;;;;;;5007675;28;20046;-66
2022/01/05 01:15:25;;;;;;;17.40;2.75;;;;;;;;;;5009640;28;20026;-66
2022/01/05 01:17:51;;;;;;;18.00;3.60;;;;;;;;;;5007242;28;20041;-65
2022/01/05 01:20:20;;;;;;;20.98;4.15;;;;;;;;;;4993190;28;20117;-66
2022/01/05 01:22:46;;;;;;;25.77;3.45;;;;;;;;;;4983762;28;20032;-66
2022/01/05 01:25:12;;;;;;;19.48;3.72;;;;;;;;;;5006871;28;20037;-66
2022/01/05 01:27:40;;;;;;;21.15;3.25;;;;;;;;;;5006761;28;20399;-67
2022/01/05 01:30:07;;;;;;;22.75;3.28;;;;;;;;;;5009291;28;20094;-66
2022/01/05 01:32:33;;;;;;;18.65;3.53;;;;;;;;;;5008643;28;20050;-67
2022/01/05 01:35:00;;;;;;;22.67;3.13;;;;;;;;;;5006183;28;20096;-67
2022/01/05 01:37:26;;;;;;;15.20;2.60;;;;;;;;;;4989582;28;20120;-66
2022/01/05 01:39:52;;;;;;;21.88;2.63;;;;;;;;;;5006493;28;20184;-66
2022/01/05 01:42:18;;;;;;;19.80;3.53;;;;;;;;;;5007317;28;20026;-66
2022/01/05 01:44:44;;;;;;;14.10;3.13;;;;;;;;;;5004529;28;20045;-67
2022/01/05 01:47:10;;;;;;;14.27;2.60;;;;;;;;;;5001156;28;21073;-66
2022/01/05 01:49:36;;;;;;;21.23;3.78;;;;;;;;;;5009494;28;20167;-66
2022/01/05 01:52:02;;;;;;;24.13;4.80;;;;;;;;;;4978880;28;20034;-65
2022/01/05 01:54:28;;;;;;;22.42;3.45;;;;;;;;;;5006730;28;20127;-66
2022/01/05 01:56:55;;;;;;;24.98;3.55;;;;;;;;;;5005499;28;20038;-67
2022/01/05 01:59:22;;;;;;;22.60;5.22;;;;;;;;;;5008982;28;20098;-67
2022/01/05 02:01:48;;;;;;;27.45;4.05;;;;;;;;;;5006040;28;20026;-68
2022/01/05 02:04:14;;;;;;;15.18;3.80;;;;;;;;;;5006018;28;20144;-66
2022/01/05 02:06:40;;;;;;;23.92;3.35;;;;;;;;;;5004571;28;20391;-66
2022/01/05 02:09:06;;;;;;;18.35;3.55;;;;;;;;;;5006288;28;20963;-67
2022/01/05 02:11:34;;;;;;;18.08;3.50;;;;;;;;;;5008481;28;20057;-67
2022/01/05 02:14:00;;;;;;;20.35;3.35;;;;;;;;;;5004001;28;20049;-66
2022/01/05 02:16:30;;;;;;;22.00;4.00;;;;;;;;;;4991658;28;20033;-66
2022/01/05 02:18:59;;;;;;;12.27;2.40;;;;;;;;;;5007309;28;20096;-65
2022/01/05 02:21:29;;;;;;;28.55;3.63;;;;;;;;;;5008579;28;20026;-65
2022/01/05 02:23:55;;;;;;;50.28;4.68;;;;;;;;;;5005034;28;20045;-66
2022/01/05 02:26:21;;;;;;;23.20;4.22;;;;;;;;;;5009538;28;20321;-64
2022/01/05 02:28:47;;;;;;;20.35;3.83;;;;;;;;;;5006931;28;20068;-66
2022/01/05 02:31:13;;;;;;;21.15;4.53;;;;;;;;;;4991891;28;20136;-66
2022/01/05 02:33:40;;;;;;;27.55;3.35;;;;;;;;;;5005261;28;20084;-66
2022/01/05 02:36:07;;;;;;;24.90;4.55;;;;;;;;;;5007954;28;20038;-66
2022/01/05 02:38:33;;;;;;;21.33;3.00;;;;;;;;;;5009034;28;20025;-66
2022/01/05 02:41:06;;;;;;;21.63;3.70;;;;;;;;;;5007490;28;20442;-66
2022/01/05 02:43:32;;;;;;;18.17;3.03;;;;;;;;;;5007564;28;20443;-65
2022/01/05 02:45:58;;;;;;;24.85;4.07;;;;;;;;;;5006112;28;20076;-67
2022/01/05 02:48:24;;;;;;;19.85;3.80;;;;;;;;;;5008185;28;20068;-67
2022/01/05 02:50:50;;;;;;;23.38;3.80;;;;;;;;;;5007313;28;20463;-66
2022/01/05 02:53:16;;;;;;;27.52;3.67;;;;;;;;;;5004755;28;20045;-65
2022/01/05 02:55:42;;;;;;;19.85;4.22;;;;;;;;;;5005486;28;20036;-65
2022/01/05 02:58:08;;;;;;;19.65;3.47;;;;;;;;;;5005795;28;20508;-66
2022/01/05 03:00:34;;;;;;;28.75;5.07;;;;;;;;;;5006296;28;20087;-67
2022/01/05 03:03:00;;;;;;;23.35;3.70;;;;;;;;;;4987524;28;20498;-66
2022/01/05 03:05:26;;;;;;;11.38;3.65;;;;;;;;;;5005201;28;20033;-66
2022/01/05 03:07:53;;;;;;;26.52;4.13;;;;;;;;;;5004730;28;20044;-66
2022/01/05 03:10:19;;;;;;;37.60;5.03;;;;;;;;;;5002980;28;20054;-66
2022/01/05 03:12:45;;;;;;;25.10;4.43;;;;;;;;;;5007016;28;20034;-66
2022/01/05 03:15:12;;;;;;;21.88;5.45;;;;;;;;;;5005607;28;20569;-66
2022/01/05 03:17:38;;;;;;;24.17;5.00;;;;;;;;;;5005254;28;20029;-66
2022/01/05 03:20:04;;;;;;;21.85;4.20;;;;;;;;;;5006879;28;20479;-67
2022/01/05 03:22:31;;;;;;;24.67;4.03;;;;;;;;;;5006649;28;20054;-65
2022/01/05 03:24:57;;;;;;;28.73;3.45;;;;;;;;;;5005617;28;20270;-65
2022/01/05 03:27:23;;;;;;;20.23;3.65;;;;;;;;;;4987845;28;20095;-66
2022/01/05 03:29:49;;;;;;;21.52;4.05;;;;;;;;;;5007181;28;20521;-66
2022/01/05 03:32:15;;;;;;;18.95;3.25;;;;;;;;;;5006057;28;20262;-66
2022/01/05 03:34:41;;;;;;;37.25;5.15;;;;;;;;;;5005452;28;20030;-66
2022/01/05 03:37:08;;;;;;;20.38;3.65;;;;;;;;;;5001998;28;20120;-66
2022/01/05 03:39:34;;;;;;;31.85;5.25;;;;;;;;;;5006170;28;20026;-66
2022/01/05 03:42:00;;;;;;;18.98;4.03;;;;;;;;;;5004296;28;20049;-66
2022/01/05 03:44:27;;;;;;;27.35;3.67;;;;;;;;;;5004121;28;20083;-66
2022/01/05 03:46:53;;;;;;;23.77;4.35;;;;;;;;;;5004181;28;20045;-66
2022/01/05 03:49:19;;;;;;;33.90;4.43;;;;;;;;;;5003983;28;20081;-66
2022/01/05 03:51:45;;;;;;;32.55;4.97;;;;;;;;;;4983431;28;20496;-66
2022/01/05 03:54:12;;;;;;;24.92;3.47;;;;;;;;;;5005899;28;20038;-67
2022/01/05 03:56:38;;;;;;;17.40;3.40;;;;;;;;;;5007075;28;20033;-65
2022/01/05 03:59:04;;;;;;;30.20;4.53;;;;;;;;;;5009676;28;20052;-65
2022/01/05 04:01:30;;;;;;;30.15;4.63;;;;;;;;;;5006804;28;20499;-66
2022/01/05 04:03:56;;;;;;;40.08;4.85;;;;;;;;;;5007938;28;20117;-68
2022/01/05 04:06:22;;;;;;;25.70;5.10;;;;;;;;;;5009501;28;20124;-66
2022/01/05 04:08:48;;;;;;;25.83;3.40;;;;;;;;;;4984564;28;20480;-66
2022/01/05 04:11:14;;;;;;;26.50;3.90;;;;;;;;;;4980477;28;20041;-67
2022/01/05 04:13:40;;;;;;;24.38;3.30;;;;;;;;;;5009140;28;20042;-65
2022/01/05 04:16:06;;;;;;;22.35;4.20;;;;;;;;;;5008380;28;20040;-67
2022/01/05 04:18:32;;;;;;;28.98;4.45;;;;;;;;;;5007984;28;20033;-68
2022/01/05 04:20:58;;;;;;;29.23;5.05;;;;;;;;;;4984117;28;20032;-65
2022/01/05 04:23:24;;;;;;;29.83;4.72;;;;;;;;;;5008870;28;20041;-67
2022/01/05 04:25:50;;;;;;;26.92;4.68;;;;;;;;;;5009194;28;20380;-66
2022/01/05 04:28:16;;;;;;;20.30;3.92;;;;;;;;;;5009276;28;20126;-67
2022/01/05 04:30:42;;;;;;;23.05;4.32;;;;;;;;;;5007764;28;20029;-67
2022/01/05 04:33:08;;;;;;;26.30;3.58;;;;;;;;;;5007375;28;20095;-66
2022/01/05 04:35:34;;;;;;;26.75;4.03;;;;;;;;;;5006667;28;20097;-67
2022/01/05 04:38:00;;;;;;;27.63;5.97;;;;;;;;;;5008812;28;20022;-67
2022/01/05 04:40:27;;;;;;;22.75;4.40;;;;;;;;;;5008917;28;20061;-67
2022/01/05 04:42:53;;;;;;;22.95;4.05;;;;;;;;;;5007162;28;20034;-67
2022/01/05 04:45:20;;;;;;;29.48;3.65;;;;;;;;;;5007228;28;20045;-66
2022/01/05 04:47:47;;;;;;;34.25;5.30;;;;;;;;;;5008797;28;20045;-69
2022/01/05 04:50:15;;;;;;;23.65;4.57;;;;;;;;;;5009891;28;20036;-67
2022/01/05 04:52:41;;;;;;;30.15;5.63;;;;;;;;;;5007960;28;20172;-67
2022/01/05 04:55:08;;;;;;;26.52;5.55;;;;;;;;;;5006310;28;20045;-67
2022/01/05 04:57:34;;;;;;;28.55;5.70;;;;;;;;;;5006305;28;20156;-65
2022/01/05 05:00:00;;;;;;;27.45;4.30;;;;;;;;;;5004732;28;20204;-66
2022/01/05 05:02:26;;;;;;;23.40;3.97;;;;;;;;;;5007333;28;20101;-67
2022/01/05 05:04:52;;;;;;;33.33;5.25;;;;;;;;;;4982580;28;20029;-66
2022/01/05 05:07:19;;;;;;;40.33;7.78;;;;;;;;;;5004436;28;20128;-66
2022/01/05 05:09:45;;;;;;;42.45;6.78;;;;;;;;;;5005046;28;20595;-66
2022/01/05 05:12:12;;;;;;;27.25;4.50;;;;;;;;;;5006053;28;20034;-66
2022/01/05 05:14:38;;;;;;;30.35;4.10;;;;;;;;;;4985281;28;20530;-66
2022/01/05 05:17:04;;;;;;;28.38;5.60;;;;;;;;;;5006027;28;20061;-68
2022/01/05 05:19:31;;;;;;;27.83;5.78;;;;;;;;;;5005681;28;20034;-66
2022/01/05 05:21:57;;;;;;;26.95;4.63;;;;;;;;;;5001890;28;20064;-66
2022/01/05 05:24:23;;;;;;;26.55;4.68;;;;;;;;;;5004929;28;20026;-65
2022/01/05 05:26:49;;;;;;;28.08;5.10;;;;;;;;;;4984322;28;20120;-67
2022/01/05 05:29:15;;;;;;;39.90;8.32;;;;;;;;;;5007040;28;20034;-67
2022/01/05 05:31:41;;;;;;;28.17;5.10;;;;;;;;;;5006857;28;20030;-66
2022/01/05 05:34:07;;;;;;;24.15;3.90;;;;;;;;;;5009777;28;20426;-66
2022/01/05 05:36:33;;;;;;;36.17;5.22;;;;;;;;;;5007830;28;20546;-65
2022/01/05 05:38:59;;;;;;;33.08;5.45;;;;;;;;;;5007046;28;20113;-67
2022/01/05 05:41:25;;;;;;;34.55;5.63;;;;;;;;;;5010414;28;20030;-67
2022/01/05 05:43:51;;;;;;;35.22;4.72;;;;;;;;;;5008970;28;20034;-66
2022/01/05 05:46:18;;;;;;;38.60;4.55;;;;;;;;;;5008593;28;20030;-65
2022/01/05 05:48:45;;;;;;;37.88;5.65;;;;;;;;;;5005609;28;20048;-67
2022/01/05 05:51:11;;;;;;;33.90;4.55;;;;;;;;;;5007326;28;20040;-66
2022/01/05 05:53:37;;;;;;;32.70;5.85;;;;;;;;;;5008977;28;20124;-66
2022/01/05 05:56:03;;;;;;;27.50;5.68;;;;;;;;;;5010060;28;20022;-66
2022/01/05 05:58:29;;;;;;;32.53;4.53;;;;;;;;;;5008171;28;20101;-68
2022/01/05 06:00:55;;;;;;;37.78;5.45;;;;;;;;;;5008106;28;20088;-67
2022/01/05 06:03:21;;;;;;;37.00;6.70;;;;;;;;;;5009553;28;20083;-66
2022/01/05 06:05:47;;;;;;;29.67;4.90;;;;;;;;;;5008501;28;20425;-66
2022/01/05 06:08:13;;;;;;;24.33;4.90;;;;;;;;;;4989507;28;20026;-67
2022/01/05 06:10:39;;;;;;;22.63;4.82;;;;;;;;;;4990503;28;20517;-67
2022/01/05 06:13:05;;;;;;;30.58;6.60;;;;;;;;;;5009695;28;20044;-68
2022/01/05 06:15:32;;;;;;;30.42;4.97;;;;;;;;;;5007339;28;20042;-66
2022/01/05 06:17:58;;;;;;;38.25;5.68;;;;;;;;;;5006404;28;20035;-66
2022/01/05 06:20:24;;;;;;;43.45;6.28;;;;;;;;;;5010003;28;20211;-66
2022/01/05 06:22:50;;;;;;;35.60;5.30;;;;;;;;;;5008457;28;20026;-65
2022/01/05 06:25:16;;;;;;;32.72;6.00;;;;;;;;;;5008013;28;20080;-66
2022/01/05 06:27:42;;;;;;;35.75;4.55;;;;;;;;;;5009702;28;20041;-66
2022/01/05 06:30:09;;;;;;;25.33;4.90;;;;;;;;;;5009439;28;20247;-66
2022/01/05 06:32:35;;;;;;;28.45;4.85;;;;;;;;;;5007796;28;20062;-66
2022/01/05 06:35:03;;;;;;;34.67;4.47;;;;;;;;;;5006926;28;20097;-66
2022/01/05 06:37:29;;;;;;;28.92;4.68;;;;;;;;;;5007897;28;20030;-68
2022/01/05 06:39:55;;;;;;;24.27;4.20;;;;;;;;;;5004238;28;20073;-66
2022/01/05 06:42:21;;;;;;;40.72;5.18;;;;;;;;;;5006857;28;20112;-66
2022/01/05 06:44:47;;;;;;;41.88;7.05;;;;;;;;;;5006479;28;20036;-66
2022/01/05 06:47:13;;;;;;;38.65;5.93;;;;;;;;;;5008198;28;20057;-66
2022/01/05 06:49:39;;;;;;;42.60;7.40;;;;;;;;;;5006415;28;20161;-67
2022/01/05 06:52:06;;;;;;;35.58;5.13;;;;;;;;;;4986310;28;20041;-67
2022/01/05 06:54:32;;;;;;;38.03;7.30;;;;;;;;;;5008006;28;20034;-65
2022/01/05 06:56:58;;;;;;;36.38;5.35;;;;;;;;;;5003445;28;20165;-66
2022/01/05 06:59:24;;;;;;;32.80;5.28;;;;;;;;;;5006261;28;20506;-65
2022/01/05 07:01:50;;;;;;;26.35;4.43;;;;;;;;;;5005682;28;20026;-67
2022/01/05 07:04:16;;;;;;;41.42;7.05;;;;;;;;;;4983235;28;20065;-67
2022/01/05 07:06:42;;;;;;;35.95;5.72;;;;;;;;;;5007108;28;20084;-65
2022/01/05 07:09:08;;;;;;;43.75;6.05;;;;;;;;;;5005875;28;20065;-66
2022/01/05 07:11:35;;;;;;;31.10;5.70;;;;;;;;;;5005587;28;20475;-66
2022/01/05 07:14:01;;;;;;;40.65;5.57;;;;;;;;;;4984253;28;20416;-66
2022/01/05 07:16:27;;;;;;;36.22;6.30;;;;;;;;;;5006534;28;20539;-66
2022/01/05 07:18:54;;;;;;;40.20;5.43;;;;;;;;;;5005240;28;20022;-66
2022/01/05 07:21:20;;;;;;;42.05;6.05;;;;;;;;;;5007943;28;20113;-66
2022/01/05 07:23:46;;;;;;;33.33;5.05;;;;;;;;;;5005352;28;21542;-67
2022/01/05 07:26:12;;;;;;;41.80;5.10;;;;;;;;;;5006243;28;20041;-67
2022/01/05 07:28:38;;;;;;;32.40;5.13;;;;;;;;;;5003001;28;20032;-65
2022/01/05 07:31:04;;;;;;;39.83;5.38;;;;;;;;;;5008129;28;20381;-67
2022/01/05 07:33:30;;;;;;;34.15;4.78;;;;;;;;;;5005782;28;20044;-66
2022/01/05 07:35:56;;;;;;;26.65;4.47;;;;;;;;;;5004266;28;20033;-67
2022/01/05 07:38:22;;;;;;;42.47;5.60;;;;;;;;;;5007051;28;20018;-67
2022/01/05 07:40:48;;;;;;;24.15;4.32;;;;;;;;;;5008119;28;20026;-67
2022/01/05 07:43:14;;;;;;;35.13;6.47;;;;;;;;;;5005367;28;20037;-67
2022/01/05 07:45:40;;;;;;;44.72;6.60;;;;;;;;;;4985896;28;20479;-66
2022/01/05 07:48:06;;;;;;;34.15;5.80;;;;;;;;;;5006487;28;20046;-66
2022/01/05 07:50:33;;;;;;;32.33;6.38;;;;;;;;;;4983514;28;20476;-67
2022/01/05 07:53:04;;;;;;;37.28;5.50;;;;;;;;;;5005008;28;20053;-67
2022/01/05 07:55:30;;;;;;;37.78;6.00;;;;;;;;;;5006188;28;20042;-67
2022/01/05 07:57:57;;;;;;;52.95;6.18;;;;;;;;;;5005547;28;20041;-68
2022/01/05 08:00:23;;;;;;;35.50;4.90;;;;;;;;;;5008437;28;20056;-67
2022/01/05 08:02:49;;;;;;;55.25;7.70;;;;;;;;;;5006069;28;20065;-66
2022/01/05 08:05:15;;;;;;;43.17;5.10;;;;;;;;;;5007374;28;20479;-67
2022/01/05 08:07:41;;;;;;;32.85;5.43;;;;;;;;;;5008742;28;20053;-68
2022/01/05 08:10:07;;;;;;;35.50;5.82;;;;;;;;;;5009499;28;20072;-67
2022/01/05 08:12:33;;;;;;;35.25;6.13;;;;;;;;;;5009118;28;20553;-68
2022/01/05 08:14:59;;;;;;;46.08;7.38;;;;;;;;;;5008545;28;20497;-66
2022/01/05 08:17:25;;;;;;;29.23;5.88;;;;;;;;;;5008003;28;20069;-67
2022/01/05 08:19:52;;;;;;;37.42;5.30;;;;;;;;;;4982196;28;20073;-67
2022/01/05 08:22:18;;;;;;;38.17;7.88;;;;;;;;;;5007209;28;20040;-67
2022/01/05 08:24:44;;;;;;;32.50;5.38;;;;;;;;;;5008448;28;20038;-67
2022/01/05 08:27:10;;;;;;;40.20;6.88;;;;;;;;;;5007407;28;20025;-67
2022/01/05 08:29:36;;;;;;;28.77;4.60;;;;;;;;;;5008458;28;20073;-67
2022/01/05 08:32:04;;;;;;;38.70;5.75;;;;;;;;;;5007163;28;20030;-67
2022/01/05 08:34:30;;;;;;;37.50;5.63;;;;;;;;;;4991014;28;20030;-67
2022/01/05 08:36:57;;;;;;;35.72;5.47;;;;;;;;;;5007707;28;20736;-67
2022/01/05 08:39:23;;;;;;;43.40;6.75;;;;;;;;;;5007208;28;20032;-66
2022/01/05 08:41:50;;;;;;;44.30;5.43;;;;;;;;;;5009917;28;20125;-66
2022/01/05 08:44:16;;;;;;;39.67;5.20;;;;;;;;;;5007442;28;20034;-67
2022/01/05 08:46:42;;;;;;;41.33;6.15;;;;;;;;;;5008139;28;20037;-68
2022/01/05 08:49:08;;;;;;;37.45;6.90;;;;;;;;;;5006779;28;20041;-68
2022/01/05 08:51:34;;;;;;;37.00;4.82;;;;;;;;;;5010083;28;20037;-67
2022/01/05 08:54:00;;;;;;;45.60;6.68;;;;;;;;;;5009353;28;20433;-67
2022/01/05 08:56:26;;;;;;;45.67;6.28;;;;;;;;;;5009439;28;20432;-67
2022/01/05 08:58:52;;;;;;;32.90;4.97;;;;;;;;;;5005608;28;20038;-68
2022/01/05 09:01:18;;;;;;;31.40;4.97;;;;;;;;;;5005202;28;20061;-66
2022/01/05 09:03:44;;;;;;;44.97;5.60;;;;;;;;;;5006746;28;20531;-67
2022/01/05 09:06:10;;;;;;;44.83;6.63;;;;;;;;;;5009389;28;20026;-67
2022/01/05 09:08:38;;;;;;;31.75;5.07;;;;;;;;;;5011570;28;20042;-67
2022/01/05 09:11:07;;;;;;;41.40;4.85;;;;;;;;;;5003507;28;20037;-67
2022/01/05 09:13:33;;;;;;;37.97;5.35;;;;;;;;;;5009398;28;20037;-67
2022/01/05 09:15:59;;;;;;;33.15;5.80;;;;;;;;;;5002948;28;20602;-68
2022/01/05 09:18:25;;;;;;;48.15;6.65;;;;;;;;;;5009882;28;20104;-68
2022/01/05 09:20:52;;;;;;;38.63;5.60;;;;;;;;;;5010795;28;20192;-68
2022/01/05 09:23:18;;;;;;;37.55;6.22;;;;;;;;;;5008422;28;20033;-68
2022/01/05 09:25:44;;;;;;;38.10;4.53;;;;;;;;;;5003867;28;20030;-67
2022/01/05 09:28:10;;;;;;;48.30;5.85;;;;;;;;;;4987694;28;20037;-68
2022/01/05 09:30:36;;;;;;;38.38;5.18;;;;;;;;;;5002326;28;20093;-67
2022/01/05 09:33:02;;;;;;;41.92;6.32;;;;;;;;;;5006922;28;20495;-68
2022/01/05 09:35:29;;;;;;;45.63;7.13;;;;;;;;;;4985953;28;20432;-68
2022/01/05 09:43:12;;;;;;;47.65;5.63;;;;;;;;;;5001961;28;20053;-68
2022/01/05 09:45:43;;;;;;;50.97;7.57;;;;;;;;;;5008487;28;20040;-69
2022/01/05 09:48:15;;;;;;;50.45;6.95;;;;;;;;;;4984372;28;20058;-68
2022/01/05 09:50:45;;;;;;;40.95;5.25;;;;;;;;;;5010270;28;20030;-68
2022/01/05 09:53:13;;;;;;;36.30;5.00;;;;;;;;;;5009283;28;20030;-68
2022/01/05 09:55:39;;;;;;;50.80;7.47;;;;;;;;;;5004789;28;20102;-68
2022/01/05 09:58:05;;;;;;;38.72;5.30;;;;;;;;;;5002527;28;20033;-67
2022/01/05 10:00:31;;;;;;;44.35;4.97;;;;;;;;;;5010889;28;20584;-68
2022/01/05 10:02:57;;;;;;;37.50;5.65;;;;;;;;;;5008460;28;20053;-69
2022/01/05 10:05:24;;;;;;;39.40;5.60;;;;;;;;;;5009914;28;20511;-67
2022/01/05 10:07:50;;;;;;;42.08;5.95;;;;;;;;;;5008061;28;20032;-68
2022/01/05 10:10:16;;;;;;;52.05;6.72;;;;;;;;;;4999969;28;20562;-68
2022/01/05 10:12:42;;;;;;;43.55;5.78;;;;;;;;;;5004690;28;20052;-68
2022/01/05 10:15:08;;;;;;;33.58;4.82;;;;;;;;;;5004316;28;20038;-69
2022/01/05 10:17:36;;;;;;;40.05;5.28;;;;;;;;;;4999310;28;20144;-68
2022/01/05 10:20:06;;;;;;;43.67;5.45;;;;;;;;;;4999532;28;20471;-68
2022/01/05 10:22:40;;;;;;;47.38;6.45;;;;;;;;;;5009439;28;20618;-68
2022/01/05 10:25:07;;;;;;;44.38;7.85;;;;;;;;;;5009442;28;20025;-68
2022/01/05 10:27:34;;;;;;;51.20;6.72;;;;;;;;;;5003423;28;20036;-68
2022/01/05 10:30:01;;;;;;;48.03;7.38;;;;;;;;;;4988711;28;20543;-67
2022/01/05 10:32:33;;;;;;;42.40;5.97;;;;;;;;;;4994967;28;20034;-68
2022/01/05 10:35:10;;;;;;;46.67;6.07;;;;;;;;;;4999451;28;20077;-68
2022/01/05 10:37:37;;;;;;;41.97;6.82;;;;;;;;;;5003987;28;20018;-67
2022/01/05 10:40:14;;;;;;;36.13;4.55;;;;;;;;;;5001707;28;20046;-68
2022/01/05 10:42:41;;;;;;;40.65;5.65;;;;;;;;;;5008645;28;20029;-67
2022/01/05 10:45:09;;;;;;;44.08;6.45;;;;;;;;;;5006615;28;20030;-69
2022/01/05 10:47:35;;;;;;;51.58;6.00;;;;;;;;;;5005878;28;20348;-67
2022/01/05 10:50:04;;;;;;;51.70;7.85;;;;;;;;;;5010470;28;20052;-68
2022/01/05 10:52:32;;;;;;;50.90;6.10;;;;;;;;;;5010160;28;20021;-67
2022/01/05 10:55:13;;;;;;;38.60;5.82;;;;;;;;;;5009852;28;20105;-68
2022/01/05 10:57:39;;;;;;;40.20;5.05;;;;;;;;;;5007280;28;20471;-67
2022/01/05 11:00:07;;;;;;;33.33;5.03;;;;;;;;;;4972331;28;20488;-68
2022/01/05 11:02:34;;;;;;;39.83;5.70;;;;;;;;;;5003985;28;20353;-68
2022/01/05 11:05:06;;;;;;;33.13;5.45;;;;;;;;;;5006277;28;20048;-69
2022/01/05 11:07:36;;;;;;;49.15;8.05;;;;;;;;;;5006330;28;20060;-68
2022/01/05 11:10:05;;;;;;;48.13;6.23;;;;;;;;;;5007775;28;20033;-68
2022/01/05 11:12:33;;;;;;;41.95;6.90;;;;;;;;;;4987488;28;20030;-68
2022/01/05 11:15:18;;;;;;;38.10;5.85;;;;;;;;;;5008284;28;20071;-69
2022/01/05 11:18:09;;;;;;;45.67;5.65;;;;;;;;;;5004224;28;20045;-67
2022/01/05 11:20:36;;;;;;;37.97;5.57;;;;;;;;;;4985548;28;20507;-68
2022/01/05 11:23:03;;;;;;;29.92;4.82;;;;;;;;;;5007698;28;20079;-68
2022/01/05 11:25:29;;;;;;;32.00;4.00;;;;;;;;;;5007553;28;20050;-68
2022/01/05 11:27:55;;;;;;;20.15;3.28;;;;;;;;;;5005120;28;20026;-68
2022/01/05 11:30:21;;;;;;;23.48;4.00;;;;;;;;;;4989492;28;20122;-68
2022/01/05 11:32:48;;;;;;;28.42;5.45;;;;;;;;;;5004770;28;20034;-68
2022/01/05 11:35:14;;;;;;;27.80;3.70;;;;;;;;;;5004468;28;20044;-69
2022/01/05 11:37:40;;;;;;;25.65;5.25;;;;;;;;;;5003980;28;20494;-67
2022/01/05 11:40:06;;;;;;;26.70;4.32;;;;;;;;;;5004450;28;20026;-68
2022/01/05 11:42:34;;;;;;;34.33;4.85;;;;;;;;;;4976652;28;20040;-68
2022/01/05 11:45:00;;;;;;;32.38;4.32;;;;;;;;;;5005038;28;20136;-70
2022/01/05 11:47:30;;;;;;;40.15;5.25;;;;;;;;;;4998304;28;20486;-70
2022/01/05 11:50:12;;;;;;;30.67;4.88;;;;;;;;;;4980049;28;20045;-69
2022/01/05 11:52:54;;;;;;;38.75;5.03;;;;;;;;;;5001728;28;20053;-69
2022/01/05 11:55:20;;;;;;;36.60;4.85;;;;;;;;;;5006158;28;20036;-70
2022/01/05 11:58:12;;;;;;;31.33;4.80;;;;;;;;;;5006875;28;20046;-70
2022/01/05 12:00:39;;;;;;;35.00;5.15;;;;;;;;;;5005098;28;20105;-68
2022/01/05 12:03:05;;;;;;;42.65;6.15;;;;;;;;;;5005366;28;20087;-71
2022/01/05 12:05:49;;;;;;;33.40;5.63;;;;;;;;;;5006303;28;20065;-70
2022/01/05 12:08:54;;;;;;;42.58;5.57;;;;;;;;;;5004719;28;20049;-68
2022/01/05 12:11:40;;;;;;;43.60;5.75;;;;;;;;;;4927796;29;20023;-68
2022/01/05 12:14:07;;;;;;;42.08;5.13;;;;;;;;;;4914790;29;20513;-68
2022/01/05 12:16:52;;;;;;;31.13;4.20;;;;;;;;;;4969611;28;20031;-68
2022/01/05 12:19:20;;;;;;;42.35;5.03;;;;;;;;;;4998314;28;20037;-68
2022/01/05 12:21:47;;;;;;;31.48;4.25;;;;;;;;;;5007205;28;20088;-69
2022/01/05 12:24:14;;;;;;;37.28;4.32;;;;;;;;;;5007445;28;20061;-68
2022/01/05 12:26:40;;;;;;;30.52;4.07;;;;;;;;;;5008041;28;20049;-67
2022/01/05 12:29:06;;;;;;;40.65;6.15;;;;;;;;;;5007945;28;20034;-68
2022/01/05 12:31:51;;;;;;;38.45;5.65;;;;;;;;;;5007791;28;20034;-69
2022/01/05 12:34:40;;;;;;;31.90;5.22;;;;;;;;;;5008351;28;20026;-66
2022/01/05 12:37:25;;;;;;;33.85;4.85;;;;;;;;;;5004816;28;20013;-67
2022/01/05 12:39:53;;;;;;;34.88;5.47;;;;;;;;;;5007320;28;20049;-67
2022/01/05 12:42:22;;;;;;;35.22;5.35;;;;;;;;;;5012213;28;20166;-69
2022/01/05 12:44:49;;;;;;;36.65;5.00;;;;;;;;;;5011744;28;20038;-66
2022/01/05 12:47:16;;;;;;;26.17;4.75;;;;;;;;;;5009439;28;20053;-68
2022/01/05 12:49:42;;;;;;;34.13;4.93;;;;;;;;;;4991609;28;20463;-68
2022/01/05 12:52:10;;;;;;;32.10;5.60;;;;;;;;;;5010768;28;20030;-67
2022/01/05 12:54:41;;;;;;;27.63;5.15;;;;;;;;;;5009814;28;20044;-67
2022/01/05 12:57:09;;;;;;;33.33;5.75;;;;;;;;;;5008827;28;20029;-67
2022/01/05 12:59:40;;;;;;;27.80;5.15;;;;;;;;;;5008504;28;20100;-67
2022/01/05 13:02:24;;;;;;;37.70;5.80;;;;;;;;;;5010488;28;20026;-67
2022/01/05 13:04:50;;;;;;;38.53;4.72;;;;;;;;;;5010338;28;20042;-67
2022/01/05 13:07:17;;;;;;;32.78;4.90;;;;;;;;;;5003674;28;20120;-68
2022/01/05 13:09:43;;;;;;;36.20;5.93;;;;;;;;;;5010708;28;20128;-66
2022/01/05 13:12:12;;;;;;;33.38;4.47;;;;;;;;;;5011860;28;20038;-67
2022/01/05 13:14:39;;;;;;;30.70;4.07;;;;;;;;;;5008989;28;20069;-68
2022/01/05 13:17:06;;;;;;;27.90;4.65;;;;;;;;;;5009854;28;20034;-67
2022/01/05 13:19:32;;;;;;;37.53;5.95;;;;;;;;;;5006492;28;20022;-66
2022/01/05 13:22:00;;;;;;;41.22;4.47;;;;;;;;;;5011308;28;20410;-68
2022/01/05 13:24:41;;;;;;;25.13;4.25;;;;;;;;;;5012557;28;20066;-69
2022/01/05 13:27:07;;;;;;;28.10;4.93;;;;;;;;;;5009236;28;20030;-67
2022/01/05 13:29:34;;;;;;;31.27;3.85;;;;;;;;;;5010294;28;20030;-67
2022/01/05 13:32:02;;;;;;;37.28;5.22;;;;;;;;;;5009655;28;20168;-68
2022/01/05 13:34:31;;;;;;;32.25;5.35;;;;;;;;;;5005397;28;20093;-68
2022/01/05 13:36:58;;;;;;;26.92;4.13;;;;;;;;;;5002489;28;20028;-68
2022/01/05 13:39:46;;;;;;;32.15;5.28;;;;;;;;;;5000502;28;20030;-67
2022/01/05 13:42:17;;;;;;;34.15;5.07;;;;;;;;;;5006411;28;20117;-68
2022/01/05 13:44:45;;;;;;;30.98;4.13;;;;;;;;;;5006124;28;20030;-67
2022/01/05 13:47:14;;;;;;;34.28;5.82;;;;;;;;;;5004520;28;20073;-67
2022/01/05 13:49:40;;;;;;;28.15;4.30;;;;;;;;;;5004402;28;20146;-67
2022/01/05 13:52:06;;;;;;;38.63;4.72;;;;;;;;;;5001650;28;20030;-67
2022/01/05 13:54:39;;;;;;;38.10;6.25;;;;;;;;;;5003833;28;20070;-67
2022/01/05 13:57:06;;;;;;;35.90;5.30;;;;;;;;;;5004792;28;20030;-68
2022/01/05 13:59:42;;;;;;;42.80;6.05;;;;;;;;;;5006885;28;20030;-67
2022/01/05 14:02:09;;;;;;;33.17;4.78;;;;;;;;;;5008267;28;20033;-69
2022/01/05 14:04:55;;;;;;;32.38;5.45;;;;;;;;;;5009895;28;20194;-67
2022/01/05 14:07:22;;;;;;;42.53;5.38;;;;;;;;;;5001966;28;20042;-67
2022/01/05 14:10:07;;;;;;;33.50;5.75;;;;;;;;;;5008444;28;20025;-67
2022/01/05 14:12:34;;;;;;;35.25;4.97;;;;;;;;;;5007954;28;20038;-67
2022/01/05 14:15:01;;;;;;;35.55;5.05;;;;;;;;;;5010031;28;20144;-67
2022/01/05 14:17:31;;;;;;;40.90;6.82;;;;;;;;;;5003602;28;20520;-66
2022/01/05 14:20:13;;;;;;;36.28;5.93;;;;;;;;;;5006829;28;20125;-67
2022/01/05 14:22:40;;;;;;;37.97;6.68;;;;;;;;;;5007959;28;20049;-68
2022/01/05 14:25:06;;;;;;;37.90;5.47;;;;;;;;;;5009392;28;20037;-67
2022/01/05 14:27:36;;;;;;;38.17;5.65;;;;;;;;;;5007248;28;20037;-73
2022/01/05 14:30:05;;;;;;;40.63;5.88;;;;;;;;;;5008154;28;20026;-67
2022/01/05 14:32:36;;;;;;;37.78;6.43;;;;;;;;;;5004029;28;21537;-67
2022/01/05 14:35:11;;;;;;;35.03;4.90;;;;;;;;;;5008901;28;20431;-67
2022/01/05 14:37:53;;;;;;;34.90;5.53;;;;;;;;;;5005854;28;20035;-68
2022/01/05 14:40:28;;;;;;;30.02;5.15;;;;;;;;;;4988215;28;20026;-68